sensor_id;sensor_type;location;lat;lon;timestamp;P1;durP1;ratioP1;P2;durP2;ratioP2
48623;SDS011;34422;45.802;16.114;2023-12-04T00:01:16;69.87;;;32.97;;
48623;SDS011;34422;45.802;16.114;2023-12-04T00:03:44;65.60;;;35.67;;
48623;SDS011;34422;45.802;16.114;2023-12-04T00:06:11;76.20;;;40.57;;
48623;SDS011;34422;45.802;16.114;2023-12-04T00:08:38;81.03;;;43.53;;
48623;SDS011;34422;45.802;16.114;2023-12-04T00:11:05;74.63;;;38.93;;
48623;SDS011;34422;45.802;16.114;2023-12-04T00:13:33;86.10;;;45.23;;
48623;SDS011;34422;45.802;16.114;2023-12-04T00:16:01;74.80;;;42.13;;
48623;SDS011;34422;45.802;16.114;2023-12-04T00:18:28;74.97;;;37.90;;
48623;SDS011;34422;45.802;16.114;2023-12-04T00:20:55;73.63;;;37.77;;
48623;SDS011;34422;45.802;16.114;2023-12-04T00:23:22;69.83;;;36.87;;
48623;SDS011;34422;45.802;16.114;2023-12-04T00:25:49;66.87;;;35.43;;
48623;SDS011;34422;45.802;16.114;2023-12-04T00:28:16;61.03;;;33.47;;
48623;SDS011;34422;45.802;16.114;2023-12-04T00:30:44;66.50;;;37.47;;
48623;SDS011;34422;45.802;16.114;2023-12-04T00:33:10;51.53;;;32.70;;
48623;SDS011;34422;45.802;16.114;2023-12-04T00:35:37;60.23;;;32.10;;
48623;SDS011;34422;45.802;16.114;2023-12-04T00:38:04;54.30;;;31.93;;
48623;SDS011;34422;45.802;16.114;2023-12-04T00:40:31;54.10;;;32.63;;
48623;SDS011;34422;45.802;16.114;2023-12-04T00:42:58;56.93;;;32.50;;
48623;SDS011;34422;45.802;16.114;2023-12-04T00:45:25;67.97;;;34.50;;
48623;SDS011;34422;45.802;16.114;2023-12-04T00:47:52;65.30;;;36.20;;
48623;SDS011;34422;45.802;16.114;2023-12-04T00:50:19;65.57;;;36.10;;
48623;SDS011;34422;45.802;16.114;2023-12-04T00:52:46;61.87;;;35.90;;
48623;SDS011;34422;45.802;16.114;2023-12-04T00:55:13;78.47;;;38.57;;
48623;SDS011;34422;45.802;16.114;2023-12-04T00:57:40;61.00;;;36.50;;
48623;SDS011;34422;45.802;16.114;2023-12-04T01:00:07;74.47;;;40.33;;
48623;SDS011;34422;45.802;16.114;2023-12-04T01:02:37;71.77;;;38.30;;
48623;SDS011;34422;45.802;16.114;2023-12-04T01:05:04;67.77;;;36.67;;
48623;SDS011;34422;45.802;16.114;2023-12-04T01:07:31;72.30;;;37.67;;
48623;SDS011;34422;45.802;16.114;2023-12-04T01:09:58;78.70;;;40.83;;
48623;SDS011;34422;45.802;16.114;2023-12-04T01:12:24;91.43;;;45.10;;
48623;SDS011;34422;45.802;16.114;2023-12-04T01:14:51;120.67;;;51.60;;
48623;SDS011;34422;45.802;16.114;2023-12-04T01:17:18;130.63;;;60.67;;
48623;SDS011;34422;45.802;16.114;2023-12-04T01:19:45;397.30;;;103.77;;
48623;SDS011;34422;45.802;16.114;2023-12-04T01:22:12;267.77;;;87.00;;
48623;SDS011;34422;45.802;16.114;2023-12-04T01:24:39;226.87;;;85.03;;
48623;SDS011;34422;45.802;16.114;2023-12-04T01:27:06;237.33;;;73.60;;
48623;SDS011;34422;45.802;16.114;2023-12-04T01:29:33;225.70;;;74.30;;
48623;SDS011;34422;45.802;16.114;2023-12-04T01:31:59;109.93;;;55.40;;
48623;SDS011;34422;45.802;16.114;2023-12-04T01:34:26;149.23;;;62.30;;
48623;SDS011;34422;45.802;16.114;2023-12-04T01:36:53;149.30;;;62.53;;
48623;SDS011;34422;45.802;16.114;2023-12-04T01:39:20;117.77;;;58.47;;
48623;SDS011;34422;45.802;16.114;2023-12-04T01:41:47;213.80;;;75.90;;
48623;SDS011;34422;45.802;16.114;2023-12-04T01:44:17;161.10;;;57.17;;
48623;SDS011;34422;45.802;16.114;2023-12-04T01:46:45;112.43;;;51.37;;
48623;SDS011;34422;45.802;16.114;2023-12-04T01:49:12;91.87;;;48.30;;
48623;SDS011;34422;45.802;16.114;2023-12-04T01:51:40;137.23;;;54.63;;
48623;SDS011;34422;45.802;16.114;2023-12-04T01:54:08;143.60;;;52.87;;
48623;SDS011;34422;45.802;16.114;2023-12-04T01:56:36;84.20;;;39.70;;
48623;SDS011;34422;45.802;16.114;2023-12-04T01:59:04;70.13;;;39.13;;
48623;SDS011;34422;45.802;16.114;2023-12-04T02:01:31;101.03;;;44.40;;
48623;SDS011;34422;45.802;16.114;2023-12-04T02:03:59;103.73;;;44.57;;
48623;SDS011;34422;45.802;16.114;2023-12-04T02:06:28;92.07;;;40.73;;
48623;SDS011;34422;45.802;16.114;2023-12-04T02:08:55;88.60;;;39.53;;
48623;SDS011;34422;45.802;16.114;2023-12-04T02:11:23;67.23;;;36.20;;
48623;SDS011;34422;45.802;16.114;2023-12-04T02:13:51;91.60;;;42.87;;
48623;SDS011;34422;45.802;16.114;2023-12-04T02:16:18;84.87;;;41.97;;
48623;SDS011;34422;45.802;16.114;2023-12-04T02:18:46;94.90;;;42.80;;
48623;SDS011;34422;45.802;16.114;2023-12-04T02:21:27;88.03;;;44.65;;
48623;SDS011;34422;45.802;16.114;2023-12-04T02:23:54;78.97;;;41.17;;
48623;SDS011;34422;45.802;16.114;2023-12-04T02:26:22;87.80;;;44.97;;
48623;SDS011;34422;45.802;16.114;2023-12-04T02:28:55;89.20;;;43.07;;
48623;SDS011;34422;45.802;16.114;2023-12-04T02:31:27;72.97;;;37.47;;
48623;SDS011;34422;45.802;16.114;2023-12-04T02:33:56;69.23;;;36.40;;
48623;SDS011;34422;45.802;16.114;2023-12-04T02:36:25;73.87;;;37.07;;
48623;SDS011;34422;45.802;16.114;2023-12-04T02:38:57;68.10;;;37.23;;
48623;SDS011;34422;45.802;16.114;2023-12-04T02:41:25;54.63;;;34.57;;
48623;SDS011;34422;45.802;16.114;2023-12-04T02:43:54;64.53;;;36.20;;
48623;SDS011;34422;45.802;16.114;2023-12-04T02:46:22;78.53;;;36.23;;
48623;SDS011;34422;45.802;16.114;2023-12-04T02:48:54;53.17;;;31.87;;
48623;SDS011;34422;45.802;16.114;2023-12-04T02:51:21;60.60;;;32.07;;
48623;SDS011;34422;45.802;16.114;2023-12-04T02:53:48;58.00;;;32.27;;
48623;SDS011;34422;45.802;16.114;2023-12-04T02:56:14;66.93;;;35.47;;
48623;SDS011;34422;45.802;16.114;2023-12-04T02:58:42;63.97;;;35.40;;
48623;SDS011;34422;45.802;16.114;2023-12-04T03:01:09;61.57;;;32.90;;
48623;SDS011;34422;45.802;16.114;2023-12-04T03:03:36;63.07;;;31.70;;
48623;SDS011;34422;45.802;16.114;2023-12-04T03:06:03;65.33;;;31.63;;
48623;SDS011;34422;45.802;16.114;2023-12-04T03:08:30;65.20;;;34.90;;
48623;SDS011;34422;45.802;16.114;2023-12-04T03:10:57;65.83;;;34.17;;
48623;SDS011;34422;45.802;16.114;2023-12-04T03:13:24;61.50;;;33.70;;
48623;SDS011;34422;45.802;16.114;2023-12-04T03:15:51;62.20;;;33.50;;
48623;SDS011;34422;45.802;16.114;2023-12-04T03:18:18;58.20;;;31.10;;
48623;SDS011;34422;45.802;16.114;2023-12-04T03:20:44;59.10;;;31.17;;
48623;SDS011;34422;45.802;16.114;2023-12-04T03:23:11;60.70;;;32.40;;
48623;SDS011;34422;45.802;16.114;2023-12-04T03:25:39;60.90;;;29.70;;
48623;SDS011;34422;45.802;16.114;2023-12-04T03:28:06;54.37;;;28.93;;
48623;SDS011;34422;45.802;16.114;2023-12-04T03:30:33;62.00;;;31.70;;
48623;SDS011;34422;45.802;16.114;2023-12-04T03:32:59;57.80;;;30.17;;
48623;SDS011;34422;45.802;16.114;2023-12-04T03:35:27;63.73;;;30.77;;
48623;SDS011;34422;45.802;16.114;2023-12-04T03:37:54;53.90;;;30.97;;
48623;SDS011;34422;45.802;16.114;2023-12-04T03:40:21;51.90;;;28.40;;
48623;SDS011;34422;45.802;16.114;2023-12-04T03:42:48;58.83;;;29.57;;
48623;SDS011;34422;45.802;16.114;2023-12-04T03:45:15;55.07;;;29.70;;
48623;SDS011;34422;45.802;16.114;2023-12-04T03:47:42;55.17;;;29.60;;
48623;SDS011;34422;45.802;16.114;2023-12-04T03:50:09;59.77;;;31.43;;
48623;SDS011;34422;45.802;16.114;2023-12-04T03:52:36;76.80;;;34.53;;
48623;SDS011;34422;45.802;16.114;2023-12-04T03:55:03;73.67;;;35.13;;
48623;SDS011;34422;45.802;16.114;2023-12-04T03:57:32;79.87;;;36.23;;
48623;SDS011;34422;45.802;16.114;2023-12-04T03:59:59;74.17;;;36.97;;
48623;SDS011;34422;45.802;16.114;2023-12-04T04:02:26;67.63;;;34.47;;
48623;SDS011;34422;45.802;16.114;2023-12-04T04:04:54;76.43;;;37.97;;
48623;SDS011;34422;45.802;16.114;2023-12-04T04:07:21;75.50;;;39.30;;
48623;SDS011;34422;45.802;16.114;2023-12-04T04:09:48;92.13;;;39.63;;
48623;SDS011;34422;45.802;16.114;2023-12-04T04:12:16;77.70;;;36.83;;
48623;SDS011;34422;45.802;16.114;2023-12-04T04:14:43;81.43;;;38.20;;
48623;SDS011;34422;45.802;16.114;2023-12-04T04:17:10;55.13;;;31.17;;
48623;SDS011;34422;45.802;16.114;2023-12-04T04:19:37;75.03;;;36.53;;
48623;SDS011;34422;45.802;16.114;2023-12-04T04:22:04;53.57;;;30.03;;
48623;SDS011;34422;45.802;16.114;2023-12-04T04:24:31;75.47;;;35.27;;
48623;SDS011;34422;45.802;16.114;2023-12-04T04:26:58;74.30;;;37.17;;
48623;SDS011;34422;45.802;16.114;2023-12-04T04:29:24;75.83;;;36.53;;
48623;SDS011;34422;45.802;16.114;2023-12-04T04:31:51;90.67;;;37.73;;
48623;SDS011;34422;45.802;16.114;2023-12-04T04:34:20;90.40;;;35.60;;
48623;SDS011;34422;45.802;16.114;2023-12-04T04:36:48;94.23;;;38.57;;
48623;SDS011;34422;45.802;16.114;2023-12-04T04:39:15;71.00;;;35.87;;
48623;SDS011;34422;45.802;16.114;2023-12-04T04:41:42;76.93;;;34.27;;
48623;SDS011;34422;45.802;16.114;2023-12-04T04:44:10;90.97;;;39.53;;
48623;SDS011;34422;45.802;16.114;2023-12-04T04:46:38;109.40;;;41.83;;
48623;SDS011;34422;45.802;16.114;2023-12-04T04:49:05;102.77;;;42.80;;
48623;SDS011;34422;45.802;16.114;2023-12-04T04:51:33;81.80;;;37.47;;
48623;SDS011;34422;45.802;16.114;2023-12-04T04:54:01;123.73;;;45.50;;
48623;SDS011;34422;45.802;16.114;2023-12-04T04:56:29;105.63;;;41.90;;
48623;SDS011;34422;45.802;16.114;2023-12-04T04:58:58;87.00;;;39.20;;
48623;SDS011;34422;45.802;16.114;2023-12-04T05:01:25;115.10;;;44.03;;
48623;SDS011;34422;45.802;16.114;2023-12-04T05:03:52;63.90;;;34.70;;
48623;SDS011;34422;45.802;16.114;2023-12-04T05:06:19;81.70;;;34.70;;
48623;SDS011;34422;45.802;16.114;2023-12-04T05:08:46;75.87;;;34.20;;
48623;SDS011;34422;45.802;16.114;2023-12-04T05:11:16;133.20;;;45.33;;
48623;SDS011;34422;45.802;16.114;2023-12-04T05:13:46;95.73;;;38.37;;
48623;SDS011;34422;45.802;16.114;2023-12-04T05:16:13;92.13;;;33.90;;
48623;SDS011;34422;45.802;16.114;2023-12-04T05:18:41;81.27;;;34.50;;
48623;SDS011;34422;45.802;16.114;2023-12-04T05:21:11;84.30;;;36.70;;
48623;SDS011;34422;45.802;16.114;2023-12-04T05:23:38;104.07;;;36.53;;
48623;SDS011;34422;45.802;16.114;2023-12-04T05:26:06;148.27;;;47.20;;
48623;SDS011;34422;45.802;16.114;2023-12-04T05:28:34;106.03;;;38.10;;
48623;SDS011;34422;45.802;16.114;2023-12-04T05:31:02;162.47;;;46.70;;
48623;SDS011;34422;45.802;16.114;2023-12-04T05:33:29;100.83;;;40.33;;
48623;SDS011;34422;45.802;16.114;2023-12-04T05:35:57;123.47;;;42.13;;
48623;SDS011;34422;45.802;16.114;2023-12-04T05:38:24;119.73;;;40.30;;
48623;SDS011;34422;45.802;16.114;2023-12-04T05:40:51;92.23;;;35.57;;
48623;SDS011;34422;45.802;16.114;2023-12-04T05:43:18;122.33;;;39.40;;
48623;SDS011;34422;45.802;16.114;2023-12-04T05:45:46;120.23;;;43.83;;
48623;SDS011;34422;45.802;16.114;2023-12-04T05:48:13;84.93;;;35.83;;
48623;SDS011;34422;45.802;16.114;2023-12-04T05:50:39;97.67;;;38.97;;
48623;SDS011;34422;45.802;16.114;2023-12-04T05:53:06;135.43;;;40.83;;
48623;SDS011;34422;45.802;16.114;2023-12-04T05:55:36;96.40;;;37.93;;
48623;SDS011;34422;45.802;16.114;2023-12-04T05:58:07;107.72;;;38.53;;
48623;SDS011;34422;45.802;16.114;2023-12-04T06:00:34;147.63;;;44.33;;
48623;SDS011;34422;45.802;16.114;2023-12-04T06:03:01;93.23;;;39.10;;
48623;SDS011;34422;45.802;16.114;2023-12-04T06:05:28;72.53;;;32.97;;
48623;SDS011;34422;45.802;16.114;2023-12-04T06:07:56;91.53;;;40.53;;
48623;SDS011;34422;45.802;16.114;2023-12-04T06:10:24;105.00;;;41.60;;
48623;SDS011;34422;45.802;16.114;2023-12-04T06:12:51;119.57;;;43.57;;
48623;SDS011;34422;45.802;16.114;2023-12-04T06:15:18;154.57;;;41.10;;
48623;SDS011;34422;45.802;16.114;2023-12-04T06:17:45;119.93;;;39.97;;
48623;SDS011;34422;45.802;16.114;2023-12-04T06:20:12;99.93;;;39.00;;
48623;SDS011;34422;45.802;16.114;2023-12-04T06:22:39;103.23;;;42.43;;
48623;SDS011;34422;45.802;16.114;2023-12-04T06:25:07;85.70;;;37.60;;
48623;SDS011;34422;45.802;16.114;2023-12-04T06:27:34;98.10;;;36.00;;
48623;SDS011;34422;45.802;16.114;2023-12-04T06:30:03;99.90;;;36.43;;
48623;SDS011;34422;45.802;16.114;2023-12-04T06:32:30;77.67;;;31.13;;
48623;SDS011;34422;45.802;16.114;2023-12-04T06:34:59;67.23;;;30.83;;
48623;SDS011;34422;45.802;16.114;2023-12-04T06:37:26;93.43;;;32.33;;
48623;SDS011;34422;45.802;16.114;2023-12-04T06:39:53;107.57;;;33.17;;
48623;SDS011;34422;45.802;16.114;2023-12-04T06:42:22;69.27;;;28.03;;
48623;SDS011;34422;45.802;16.114;2023-12-04T06:44:50;60.63;;;30.77;;
48623;SDS011;34422;45.802;16.114;2023-12-04T06:47:17;86.37;;;35.13;;
48623;SDS011;34422;45.802;16.114;2023-12-04T06:49:48;58.28;;;31.55;;
48623;SDS011;34422;45.802;16.114;2023-12-04T06:52:15;92.87;;;36.30;;
48623;SDS011;34422;45.802;16.114;2023-12-04T06:54:42;78.33;;;35.33;;
48623;SDS011;34422;45.802;16.114;2023-12-04T06:57:10;80.07;;;31.07;;
48623;SDS011;34422;45.802;16.114;2023-12-04T06:59:37;128.67;;;36.70;;
48623;SDS011;34422;45.802;16.114;2023-12-04T07:02:04;50.90;;;25.63;;
48623;SDS011;34422;45.802;16.114;2023-12-04T07:04:31;76.17;;;33.47;;
48623;SDS011;34422;45.802;16.114;2023-12-04T07:06:58;67.53;;;30.90;;
48623;SDS011;34422;45.802;16.114;2023-12-04T07:09:31;63.37;;;29.73;;
48623;SDS011;34422;45.802;16.114;2023-12-04T07:12:01;97.03;;;36.00;;
48623;SDS011;34422;45.802;16.114;2023-12-04T07:14:29;104.23;;;33.73;;
48623;SDS011;34422;45.802;16.114;2023-12-04T07:16:56;69.47;;;30.20;;
48623;SDS011;34422;45.802;16.114;2023-12-04T07:19:23;55.17;;;28.77;;
48623;SDS011;34422;45.802;16.114;2023-12-04T07:21:51;81.00;;;30.90;;
48623;SDS011;34422;45.802;16.114;2023-12-04T07:24:18;82.50;;;32.40;;
48623;SDS011;34422;45.802;16.114;2023-12-04T07:26:45;72.53;;;34.13;;
48623;SDS011;34422;45.802;16.114;2023-12-04T07:29:12;85.00;;;31.87;;
48623;SDS011;34422;45.802;16.114;2023-12-04T07:31:40;63.63;;;27.93;;
48623;SDS011;34422;45.802;16.114;2023-12-04T07:34:09;98.10;;;30.70;;
48623;SDS011;34422;45.802;16.114;2023-12-04T07:36:42;75.20;;;29.40;;
48623;SDS011;34422;45.802;16.114;2023-12-04T07:39:10;79.63;;;31.10;;
48623;SDS011;34422;45.802;16.114;2023-12-04T07:41:37;68.60;;;29.70;;
48623;SDS011;34422;45.802;16.114;2023-12-04T07:44:04;73.50;;;34.33;;
48623;SDS011;34422;45.802;16.114;2023-12-04T07:46:32;90.70;;;35.83;;
48623;SDS011;34422;45.802;16.114;2023-12-04T07:48:59;53.40;;;31.60;;
48623;SDS011;34422;45.802;16.114;2023-12-04T07:51:26;107.17;;;38.77;;
48623;SDS011;34422;45.802;16.114;2023-12-04T07:53:53;89.17;;;34.67;;
48623;SDS011;34422;45.802;16.114;2023-12-04T07:56:20;103.37;;;33.43;;
48623;SDS011;34422;45.802;16.114;2023-12-04T07:58:47;100.27;;;32.83;;
48623;SDS011;34422;45.802;16.114;2023-12-04T08:01:13;82.10;;;31.90;;
48623;SDS011;34422;45.802;16.114;2023-12-04T08:03:41;93.23;;;32.30;;
48623;SDS011;34422;45.802;16.114;2023-12-04T08:06:07;80.60;;;31.60;;
48623;SDS011;34422;45.802;16.114;2023-12-04T08:08:35;93.40;;;32.27;;
48623;SDS011;34422;45.802;16.114;2023-12-04T08:11:03;62.93;;;30.03;;
48623;SDS011;34422;45.802;16.114;2023-12-04T08:13:30;95.63;;;36.20;;
48623;SDS011;34422;45.802;16.114;2023-12-04T08:15:57;94.57;;;37.27;;
48623;SDS011;34422;45.802;16.114;2023-12-04T08:18:24;103.23;;;35.20;;
48623;SDS011;34422;45.802;16.114;2023-12-04T08:20:51;78.80;;;33.47;;
48623;SDS011;34422;45.802;16.114;2023-12-04T08:23:18;81.33;;;33.87;;
48623;SDS011;34422;45.802;16.114;2023-12-04T08:25:45;74.60;;;37.43;;
48623;SDS011;34422;45.802;16.114;2023-12-04T08:28:12;88.17;;;36.53;;
48623;SDS011;34422;45.802;16.114;2023-12-04T08:30:39;107.33;;;38.63;;
48623;SDS011;34422;45.802;16.114;2023-12-04T08:33:05;68.07;;;31.53;;
48623;SDS011;34422;45.802;16.114;2023-12-04T08:35:34;68.13;;;34.80;;
48623;SDS011;34422;45.802;16.114;2023-12-04T08:38:03;71.80;;;34.60;;
48623;SDS011;34422;45.802;16.114;2023-12-04T08:40:34;72.35;;;33.25;;
48623;SDS011;34422;45.802;16.114;2023-12-04T08:43:03;80.73;;;34.47;;
48623;SDS011;34422;45.802;16.114;2023-12-04T08:45:33;85.57;;;34.63;;
48623;SDS011;34422;45.802;16.114;2023-12-04T08:48:00;83.20;;;36.33;;
48623;SDS011;34422;45.802;16.114;2023-12-04T08:50:34;83.87;;;35.23;;
48623;SDS011;34422;45.802;16.114;2023-12-04T08:53:07;76.87;;;37.00;;
48623;SDS011;34422;45.802;16.114;2023-12-04T08:55:36;77.83;;;35.23;;
48623;SDS011;34422;45.802;16.114;2023-12-04T08:58:03;81.73;;;37.07;;
48623;SDS011;34422;45.802;16.114;2023-12-04T09:00:31;84.53;;;34.53;;
48623;SDS011;34422;45.802;16.114;2023-12-04T09:02:59;63.30;;;32.50;;
48623;SDS011;34422;45.802;16.114;2023-12-04T09:05:26;80.10;;;34.87;;
48623;SDS011;34422;45.802;16.114;2023-12-04T09:07:56;75.07;;;34.50;;
48623;SDS011;34422;45.802;16.114;2023-12-04T09:10:29;71.83;;;33.20;;
48623;SDS011;34422;45.802;16.114;2023-12-04T09:12:57;69.00;;;33.97;;
48623;SDS011;34422;45.802;16.114;2023-12-04T09:15:24;90.83;;;36.50;;
48623;SDS011;34422;45.802;16.114;2023-12-04T09:17:51;129.10;;;41.30;;
48623;SDS011;34422;45.802;16.114;2023-12-04T09:20:24;77.00;;;34.80;;
48623;SDS011;34422;45.802;16.114;2023-12-04T09:22:53;79.47;;;35.72;;
48623;SDS011;34422;45.802;16.114;2023-12-04T09:25:26;83.50;;;36.87;;
48623;SDS011;34422;45.802;16.114;2023-12-04T09:27:54;71.63;;;34.27;;
48623;SDS011;34422;45.802;16.114;2023-12-04T09:30:20;81.03;;;34.63;;
48623;SDS011;34422;45.802;16.114;2023-12-04T09:32:48;80.43;;;35.83;;
48623;SDS011;34422;45.802;16.114;2023-12-04T09:35:15;78.03;;;32.57;;
48623;SDS011;34422;45.802;16.114;2023-12-04T09:37:57;71.03;;;36.03;;
48623;SDS011;34422;45.802;16.114;2023-12-04T09:40:29;77.87;;;38.97;;
48623;SDS011;34422;45.802;16.114;2023-12-04T09:42:58;80.40;;;39.50;;
48623;SDS011;34422;45.802;16.114;2023-12-04T09:45:28;84.07;;;42.87;;
48623;SDS011;34422;45.802;16.114;2023-12-04T09:47:55;72.20;;;39.23;;
48623;SDS011;34422;45.802;16.114;2023-12-04T09:50:22;85.47;;;37.70;;
48623;SDS011;34422;45.802;16.114;2023-12-04T09:52:49;73.43;;;36.57;;
48623;SDS011;34422;45.802;16.114;2023-12-04T09:55:22;77.40;;;38.97;;
48623;SDS011;34422;45.802;16.114;2023-12-04T09:57:49;73.27;;;38.47;;
48623;SDS011;34422;45.802;16.114;2023-12-04T10:00:19;81.13;;;38.53;;
48623;SDS011;34422;45.802;16.114;2023-12-04T10:02:47;76.13;;;35.80;;
48623;SDS011;34422;45.802;16.114;2023-12-04T10:05:15;82.23;;;38.83;;
48623;SDS011;34422;45.802;16.114;2023-12-04T10:07:42;79.77;;;37.43;;
48623;SDS011;34422;45.802;16.114;2023-12-04T10:10:09;71.57;;;37.15;;
48623;SDS011;34422;45.802;16.114;2023-12-04T10:12:38;82.07;;;35.63;;
48623;SDS011;34422;45.802;16.114;2023-12-04T10:15:08;61.80;;;34.50;;
48623;SDS011;34422;45.802;16.114;2023-12-04T10:20:11;64.50;;;33.47;;
48623;SDS011;34422;45.802;16.114;2023-12-04T10:23:00;67.43;;;32.60;;
48623;SDS011;34422;45.802;16.114;2023-12-04T10:25:28;66.75;;;34.10;;
48623;SDS011;34422;45.802;16.114;2023-12-04T10:28:07;73.20;;;36.53;;
48623;SDS011;34422;45.802;16.114;2023-12-04T10:30:35;74.85;;;36.42;;
48623;SDS011;34422;45.802;16.114;2023-12-04T10:33:03;63.63;;;34.58;;
48623;SDS011;34422;45.802;16.114;2023-12-04T10:35:32;67.93;;;36.70;;
48623;SDS011;34422;45.802;16.114;2023-12-04T10:38:03;74.00;;;37.13;;
48623;SDS011;34422;45.802;16.114;2023-12-04T10:40:34;66.50;;;34.70;;
48623;SDS011;34422;45.802;16.114;2023-12-04T10:45:42;62.10;;;32.03;;
48623;SDS011;34422;45.802;16.114;2023-12-04T10:48:14;67.07;;;31.60;;
48623;SDS011;34422;45.802;16.114;2023-12-04T10:50:46;64.60;;;30.67;;
48623;SDS011;34422;45.802;16.114;2023-12-04T10:55:41;60.35;;;30.05;;
48623;SDS011;34422;45.802;16.114;2023-12-04T10:58:10;59.38;;;30.63;;
48623;SDS011;34422;45.802;16.114;2023-12-04T11:00:45;66.07;;;33.30;;
48623;SDS011;34422;45.802;16.114;2023-12-04T11:03:28;63.63;;;33.45;;
48623;SDS011;34422;45.802;16.114;2023-12-04T11:06:02;58.70;;;32.03;;
48623;SDS011;34422;45.802;16.114;2023-12-04T11:08:38;68.05;;;36.33;;
48623;SDS011;34422;45.802;16.114;2023-12-04T11:11:45;68.20;;;35.67;;
48623;SDS011;34422;45.802;16.114;2023-12-04T11:14:08;65.70;;;35.30;;
48623;SDS011;34422;45.802;16.114;2023-12-04T11:19:35;61.97;;;34.95;;
48623;SDS011;34422;45.802;16.114;2023-12-04T11:22:19;59.50;;;32.65;;
48623;SDS011;34422;45.802;16.114;2023-12-04T11:24:58;57.85;;;33.45;;
48623;SDS011;34422;45.802;16.114;2023-12-04T11:27:39;56.72;;;33.33;;
48623;SDS011;34422;45.802;16.114;2023-12-04T11:30:20;69.93;;;37.33;;
48623;SDS011;34422;45.802;16.114;2023-12-04T11:32:51;56.88;;;33.28;;
48623;SDS011;34422;45.802;16.114;2023-12-04T11:35:29;66.97;;;38.60;;
48623;SDS011;34422;45.802;16.114;2023-12-04T11:38:04;69.85;;;38.40;;
48623;SDS011;34422;45.802;16.114;2023-12-04T11:40:40;72.28;;;40.33;;
48623;SDS011;34422;45.802;16.114;2023-12-04T11:43:21;70.55;;;38.40;;
48623;SDS011;34422;45.802;16.114;2023-12-04T11:46:09;63.15;;;36.72;;
48623;SDS011;34422;45.802;16.114;2023-12-04T11:51:58;54.15;;;30.58;;
48623;SDS011;34422;45.802;16.114;2023-12-04T11:57:36;52.17;;;30.35;;
48623;SDS011;34422;45.802;16.114;2023-12-04T12:02:51;45.13;;;30.25;;
48623;SDS011;34422;45.802;16.114;2023-12-04T12:05:37;63.25;;;35.83;;
48623;SDS011;34422;45.802;16.114;2023-12-04T12:08:17;43.78;;;29.77;;
48623;SDS011;34422;45.802;16.114;2023-12-04T12:10:47;58.13;;;36.03;;
48623;SDS011;34422;45.802;16.114;2023-12-04T12:13:26;54.38;;;32.50;;
48623;SDS011;34422;45.802;16.114;2023-12-04T12:16:04;57.00;;;35.58;;
48623;SDS011;34422;45.802;16.114;2023-12-04T12:18:41;47.42;;;30.63;;
48623;SDS011;34422;45.802;16.114;2023-12-04T12:21:24;47.50;;;30.02;;
48623;SDS011;34422;45.802;16.114;2023-12-04T12:23:52;58.90;;;36.85;;
48623;SDS011;34422;45.802;16.114;2023-12-04T12:26:21;43.40;;;33.88;;
48623;SDS011;34422;45.802;16.114;2023-12-04T12:28:49;52.65;;;39.50;;
48623;SDS011;34422;45.802;16.114;2023-12-04T12:31:16;41.45;;;33.17;;
48623;SDS011;34422;45.802;16.114;2023-12-04T12:33:51;46.50;;;36.20;;
48623;SDS011;34422;45.802;16.114;2023-12-04T12:36:28;48.80;;;43.53;;
48623;SDS011;34422;45.802;16.114;2023-12-04T12:39:03;45.28;;;39.72;;
48623;SDS011;34422;45.802;16.114;2023-12-04T12:44:07;40.28;;;26.92;;
48623;SDS011;34422;45.802;16.114;2023-12-04T12:46:40;59.28;;;39.05;;
48623;SDS011;34422;45.802;16.114;2023-12-04T12:49:07;61.70;;;41.15;;
48623;SDS011;34422;45.802;16.114;2023-12-04T12:51:45;80.47;;;64.90;;
48623;SDS011;34422;45.802;16.114;2023-12-04T12:54:13;73.75;;;66.05;;
48623;SDS011;34422;45.802;16.114;2023-12-04T12:56:40;66.53;;;43.03;;
48623;SDS011;34422;45.802;16.114;2023-12-04T12:59:07;73.38;;;46.13;;
48623;SDS011;34422;45.802;16.114;2023-12-04T13:01:34;77.05;;;61.83;;
48623;SDS011;34422;45.802;16.114;2023-12-04T13:04:06;67.00;;;43.95;;
48623;SDS011;34422;45.802;16.114;2023-12-04T13:06:36;73.82;;;42.72;;
48623;SDS011;34422;45.802;16.114;2023-12-04T13:09:06;72.97;;;40.67;;
48623;SDS011;34422;45.802;16.114;2023-12-04T13:11:44;63.97;;;39.88;;
48623;SDS011;34422;45.802;16.114;2023-12-04T13:14:13;75.95;;;52.55;;
48623;SDS011;34422;45.802;16.114;2023-12-04T13:16:46;67.95;;;39.45;;
48623;SDS011;34422;45.802;16.114;2023-12-04T13:19:18;77.75;;;44.92;;
48623;SDS011;34422;45.802;16.114;2023-12-04T13:22:09;97.63;;;87.45;;
48623;SDS011;34422;45.802;16.114;2023-12-04T13:24:49;62.78;;;37.42;;
48623;SDS011;34422;45.802;16.114;2023-12-04T13:27:23;70.82;;;38.65;;
48623;SDS011;34422;45.802;16.114;2023-12-04T13:29:49;70.57;;;41.05;;
48623;SDS011;34422;45.802;16.114;2023-12-04T13:32:16;70.50;;;41.20;;
48623;SDS011;34422;45.802;16.114;2023-12-04T13:34:52;63.45;;;38.97;;
48623;SDS011;34422;45.802;16.114;2023-12-04T13:37:19;76.00;;;41.58;;
48623;SDS011;34422;45.802;16.114;2023-12-04T13:39:46;66.65;;;37.42;;
48623;SDS011;34422;45.802;16.114;2023-12-04T13:42:18;74.35;;;37.63;;
48623;SDS011;34422;45.802;16.114;2023-12-04T13:45:09;59.63;;;32.55;;
48623;SDS011;34422;45.802;16.114;2023-12-04T13:47:39;56.67;;;32.25;;
48623;SDS011;34422;45.802;16.114;2023-12-04T13:50:08;63.63;;;33.88;;
48623;SDS011;34422;45.802;16.114;2023-12-04T13:52:41;68.57;;;40.67;;
48623;SDS011;34422;45.802;16.114;2023-12-04T13:55:09;74.90;;;41.58;;
48623;SDS011;34422;45.802;16.114;2023-12-04T13:57:48;68.28;;;38.25;;
48623;SDS011;34422;45.802;16.114;2023-12-04T14:00:45;64.93;;;34.17;;
48623;SDS011;34422;45.802;16.114;2023-12-04T14:03:12;58.63;;;33.35;;
48623;SDS011;34422;45.802;16.114;2023-12-04T14:05:48;74.22;;;36.35;;
48623;SDS011;34422;45.802;16.114;2023-12-04T14:08:15;64.25;;;35.42;;
48623;SDS011;34422;45.802;16.114;2023-12-04T14:10:45;61.72;;;34.67;;
48623;SDS011;34422;45.802;16.114;2023-12-04T14:13:12;67.50;;;32.97;;
48623;SDS011;34422;45.802;16.114;2023-12-04T14:15:39;64.00;;;36.05;;
48623;SDS011;34422;45.802;16.114;2023-12-04T14:18:06;70.28;;;39.58;;
48623;SDS011;34422;45.802;16.114;2023-12-04T14:20:33;66.20;;;36.40;;
48623;SDS011;34422;45.802;16.114;2023-12-04T14:23:00;64.65;;;37.35;;
48623;SDS011;34422;45.802;16.114;2023-12-04T14:25:26;66.78;;;34.67;;
48623;SDS011;34422;45.802;16.114;2023-12-04T14:27:53;68.63;;;35.97;;
48623;SDS011;34422;45.802;16.114;2023-12-04T14:30:22;69.78;;;37.45;;
48623;SDS011;34422;45.802;16.114;2023-12-04T14:32:49;71.03;;;35.83;;
48623;SDS011;34422;45.802;16.114;2023-12-04T14:35:17;63.45;;;35.97;;
48623;SDS011;34422;45.802;16.114;2023-12-04T14:37:44;61.10;;;32.63;;
48623;SDS011;34422;45.802;16.114;2023-12-04T14:40:12;49.58;;;30.40;;